createdAt,value
2023-10-17T00:01:39.000Z,5.1
2023-10-17T00:05:12.000Z,5.2
2023-10-17T00:07:58.000Z,5.3
2023-10-17T00:11:31.000Z,5.6
2023-10-17T00:15:03.000Z,4.8
2023-10-17T00:18:36.000Z,5.4
2023-10-17T00:22:09.000Z,6.1
2023-10-17T00:25:41.000Z,7.1
2023-10-17T00:29:14.000Z,6.8
2023-10-17T00:32:51.000Z,6.1
2023-10-17T00:36:25.000Z,6.1
2023-10-17T00:39:58.000Z,5.8
2023-10-17T00:43:30.000Z,7.2
2023-10-17T00:46:16.000Z,8.4
2023-10-17T00:50:02.000Z,7.3
2023-10-17T00:53:35.000Z,6.9
2023-10-17T00:57:08.000Z,7.7
2023-10-17T01:00:40.000Z,7.5
2023-10-17T01:04:13.000Z,8.3
2023-10-17T01:07:46.000Z,8.3
2023-10-17T01:11:19.000Z,7.5
2023-10-17T01:14:51.000Z,7
2023-10-17T01:18:24.000Z,6.8
2023-10-17T01:21:57.000Z,6.8
2023-10-17T01:24:42.000Z,6.5
2023-10-17T01:28:15.000Z,6.5
2023-10-17T01:31:47.000Z,6.4
2023-10-17T01:35:20.000Z,6
2023-10-17T01:38:53.000Z,7
2023-10-17T01:42:26.000Z,6.1
2023-10-17T01:45:58.000Z,6.4
2023-10-17T01:49:31.000Z,6.3
2023-10-17T01:53:04.000Z,6.6
2023-10-17T01:56:37.000Z,6.9
2023-10-17T02:00:09.000Z,7.1
2023-10-17T02:02:54.000Z,7.5
2023-10-17T02:06:28.000Z,7.3
2023-10-17T02:10:00.000Z,8.2
2023-10-17T02:13:33.000Z,8.3
2023-10-17T02:17:06.000Z,6.8
2023-10-17T02:20:38.000Z,7.8
2023-10-17T02:24:12.000Z,7.9
2023-10-17T02:27:45.000Z,7.9
2023-10-17T02:31:17.000Z,8
2023-10-17T02:34:50.000Z,8.2
2023-10-17T02:38:23.000Z,7.3
2023-10-17T02:41:08.000Z,9
2023-10-17T02:44:41.000Z,7.6
2023-10-17T02:48:14.000Z,9.7
2023-10-17T02:51:46.000Z,8.7
2023-10-17T02:55:19.000Z,7.3
2023-10-17T02:58:52.000Z,8.2
2023-10-17T03:02:24.000Z,7.8
2023-10-17T03:05:57.000Z,8.2
2023-10-17T03:09:30.000Z,8.6
2023-10-17T03:13:03.000Z,8.3
2023-10-17T03:16:36.000Z,8.2
2023-10-17T03:19:21.000Z,8.1
2023-10-17T03:22:54.000Z,8.9
2023-10-17T03:26:27.000Z,10.6
2023-10-17T03:29:59.000Z,10.7
2023-10-17T03:33:33.000Z,8
2023-10-17T03:37:05.000Z,8.1
2023-10-17T03:40:38.000Z,8
2023-10-17T03:44:11.000Z,8.9
2023-10-17T03:47:44.000Z,8.5
2023-10-17T03:51:17.000Z,7.9
2023-10-17T03:54:50.000Z,7.2
2023-10-17T03:57:36.000Z,8.6
2023-10-17T04:01:08.000Z,7.5
2023-10-17T04:04:41.000Z,8.6
2023-10-17T04:08:14.000Z,8.5
2023-10-17T04:11:47.000Z,8.6
2023-10-17T04:15:19.000Z,9.3
2023-10-17T04:18:52.000Z,8.3
2023-10-17T04:22:25.000Z,9.4
2023-10-17T04:25:58.000Z,9
2023-10-17T04:29:30.000Z,8.9
2023-10-17T04:33:03.000Z,9.2
2023-10-17T04:35:49.000Z,9.3
2023-10-17T04:39:22.000Z,8.8
2023-10-17T04:42:54.000Z,9.4
2023-10-17T04:46:27.000Z,9.7
2023-10-17T04:50:00.000Z,9.6
2023-10-17T04:53:33.000Z,9
2023-10-17T04:57:06.000Z,9.1
2023-10-17T05:00:38.000Z,8.8
2023-10-17T05:04:11.000Z,9
2023-10-17T05:07:44.000Z,8.6
2023-10-17T05:11:20.000Z,8.6
2023-10-17T05:14:05.000Z,8.6
2023-10-17T05:17:38.000Z,8.9
2023-10-17T05:21:11.000Z,8.9
2023-10-17T05:24:44.000Z,9.3
2023-10-17T05:28:16.000Z,8.8
2023-10-17T05:31:49.000Z,9.2
2023-10-17T05:35:22.000Z,8.3
2023-10-17T05:38:55.000Z,9
2023-10-17T05:42:27.000Z,9.2
2023-10-17T05:46:00.000Z,9.7
2023-10-17T05:49:33.000Z,8.7
2023-10-17T05:52:18.000Z,9.2
2023-10-17T05:55:51.000Z,9.5
2023-10-17T05:59:23.000Z,9.9
2023-10-17T06:02:56.000Z,9.8
2023-10-17T06:06:29.000Z,10.6
2023-10-17T06:10:02.000Z,9
2023-10-17T06:13:34.000Z,9.4
2023-10-17T06:17:07.000Z,8.6
2023-10-17T06:20:40.000Z,8.8
2023-10-17T06:24:13.000Z,9.5
2023-10-17T06:27:46.000Z,8.7
2023-10-17T06:30:30.000Z,8.6
2023-10-17T06:34:03.000Z,8.8
2023-10-17T06:37:37.000Z,8.7
2023-10-17T06:41:09.000Z,8.5
2023-10-17T06:44:42.000Z,8.6
2023-10-17T06:48:15.000Z,9
2023-10-17T06:51:48.000Z,9.2
2023-10-17T06:55:20.000Z,7.4
2023-10-17T06:58:53.000Z,9.6
2023-10-17T07:02:26.000Z,8.5
2023-10-17T07:05:59.000Z,8.7
2023-10-17T07:08:44.000Z,9.3
2023-10-17T07:12:16.000Z,9.8
2023-10-17T07:15:52.000Z,9.8
2023-10-17T07:19:24.000Z,8.3
2023-10-17T07:22:58.000Z,9.1
2023-10-17T07:26:30.000Z,9.4
2023-10-17T07:30:04.000Z,9.4
2023-10-17T07:33:37.000Z,9.8
2023-10-17T07:37:10.000Z,9.6
2023-10-17T07:40:43.000Z,7.1
2023-10-17T07:44:15.000Z,10.1
2023-10-17T07:47:00.000Z,7.6
2023-10-17T07:50:33.000Z,9
2023-10-17T07:54:07.000Z,8.1
2023-10-17T07:57:39.000Z,7.6
2023-10-17T08:01:12.000Z,9
2023-10-17T08:04:45.000Z,8.8
2023-10-17T08:08:18.000Z,9.9
2023-10-17T08:11:50.000Z,7
2023-10-17T08:15:23.000Z,9.6
2023-10-17T08:18:57.000Z,9.6
2023-10-17T08:22:29.000Z,9.9
2023-10-17T08:25:14.000Z,9.9
2023-10-17T08:28:47.000Z,10
2023-10-17T08:32:43.000Z,9.8
2023-10-17T08:36:16.000Z,9.5
2023-10-17T08:39:48.000Z,9.9
2023-10-17T08:43:21.000Z,7.3
2023-10-17T08:46:54.000Z,10
2023-10-17T08:50:28.000Z,9
2023-10-17T08:54:01.000Z,9.8
2023-10-17T08:57:34.000Z,9.6
2023-10-17T09:01:07.000Z,8.1
2023-10-17T09:03:52.000Z,9.4
2023-10-17T09:07:25.000Z,8.5
2023-10-17T09:10:57.000Z,8.3
2023-10-17T09:14:30.000Z,9.7
2023-10-17T09:18:03.000Z,7.7
2023-10-17T09:21:36.000Z,9.8
2023-10-17T09:25:09.000Z,9.6
2023-10-17T09:28:42.000Z,6.7
2023-10-17T09:32:16.000Z,6.7
2023-10-17T09:35:48.000Z,7.8
2023-10-17T09:39:21.000Z,8.2
2023-10-17T09:42:16.000Z,9.4
2023-10-17T09:45:49.000Z,8.6
2023-10-17T09:49:22.000Z,6.8
2023-10-17T09:52:55.000Z,8.7
2023-10-17T09:56:28.000Z,8.5
2023-10-17T10:00:01.000Z,8.8
2023-10-17T10:03:34.000Z,7.5
2023-10-17T10:07:07.000Z,7.4
2023-10-17T10:10:39.000Z,7
2023-10-17T10:14:13.000Z,6.9
2023-10-17T10:17:45.000Z,8.9
2023-10-17T10:20:31.000Z,7.8
2023-10-17T10:24:04.000Z,9
2023-10-17T10:27:37.000Z,9.2
2023-10-17T10:31:10.000Z,8.4
2023-10-17T10:34:42.000Z,8.5
2023-10-17T10:38:15.000Z,6.9
2023-10-17T10:41:48.000Z,7.5
2023-10-17T10:45:21.000Z,7.6
2023-10-17T10:48:54.000Z,6.4
2023-10-17T10:52:26.000Z,6.2
2023-10-17T10:55:59.000Z,6.8
2023-10-17T10:58:44.000Z,7.3
2023-10-17T11:02:17.000Z,7.5
2023-10-17T11:05:50.000Z,6.3
2023-10-17T11:09:22.000Z,6.8
2023-10-17T11:12:55.000Z,6.1
2023-10-17T11:16:28.000Z,7.7
2023-10-17T11:20:01.000Z,6.2
2023-10-17T11:23:34.000Z,7.5
2023-10-17T11:27:07.000Z,6.7
2023-10-17T11:30:40.000Z,6.6
2023-10-17T11:34:12.000Z,6.4
2023-10-17T11:36:58.000Z,7
2023-10-17T11:40:43.000Z,7.1
2023-10-17T11:44:15.000Z,6.1
2023-10-17T11:47:48.000Z,6.3
2023-10-17T11:51:22.000Z,6
2023-10-17T11:54:54.000Z,6.9
2023-10-17T11:58:28.000Z,5.6
2023-10-17T12:02:00.000Z,5.7
2023-10-17T12:05:33.000Z,6.4
2023-10-17T12:09:06.000Z,5.8
2023-10-17T12:12:39.000Z,5.9
2023-10-17T12:15:24.000Z,5.6
2023-10-17T12:18:57.000Z,5.8
2023-10-17T12:22:31.000Z,5.6
2023-10-17T12:26:03.000Z,5.9
2023-10-17T12:29:36.000Z,5.8
2023-10-17T12:33:09.000Z,4.8
2023-10-17T12:36:42.000Z,5.2
2023-10-17T12:40:14.000Z,4.2
2023-10-17T12:43:47.000Z,4.9
2023-10-17T12:47:21.000Z,5.9
2023-10-17T12:50:54.000Z,5
2023-10-17T12:53:39.000Z,5.5
2023-10-17T12:57:12.000Z,6
2023-10-17T13:00:45.000Z,5
2023-10-17T13:04:18.000Z,5.1
2023-10-17T13:07:51.000Z,4
2023-10-17T13:11:24.000Z,4.6
2023-10-17T13:14:57.000Z,4.1
2023-10-17T13:18:30.000Z,4.5
2023-10-17T13:22:03.000Z,4.5
2023-10-17T13:25:35.000Z,3.9
2023-10-17T13:29:15.000Z,3.8
2023-10-17T13:32:00.000Z,4.1
2023-10-17T13:35:33.000Z,4.1
2023-10-17T13:39:06.000Z,3.9
2023-10-17T13:42:39.000Z,4.2
2023-10-17T13:46:12.000Z,3.6
2023-10-17T13:49:45.000Z,3.9
2023-10-17T13:53:18.000Z,4.5
2023-10-17T13:56:50.000Z,3.7
2023-10-17T14:00:23.000Z,4.2
2023-10-17T14:03:56.000Z,3.7
2023-10-17T14:07:29.000Z,4
2023-10-17T14:10:15.000Z,3.6
2023-10-17T14:13:47.000Z,3.4
2023-10-17T14:17:20.000Z,3.8
2023-10-17T14:20:53.000Z,3.8
2023-10-17T14:24:26.000Z,3.4
2023-10-17T14:27:58.000Z,4.2
2023-10-17T14:31:31.000Z,3.1
2023-10-17T14:35:04.000Z,3.3
2023-10-17T14:38:37.000Z,3.7
2023-10-17T14:42:10.000Z,4
2023-10-17T14:45:42.000Z,3.5
2023-10-17T14:48:28.000Z,3.2
2023-10-17T14:52:01.000Z,3.2
2023-10-17T14:55:49.000Z,3.3
2023-10-17T14:59:22.000Z,3.1
2023-10-17T15:02:55.000Z,3
2023-10-17T15:06:28.000Z,3.1
2023-10-17T15:10:01.000Z,3.4
2023-10-17T15:13:34.000Z,3.2
2023-10-17T15:17:07.000Z,3.2
2023-10-17T15:20:40.000Z,3.5
2023-10-17T15:24:13.000Z,3.3
2023-10-17T15:26:58.000Z,2.7
2023-10-17T15:30:31.000Z,2.5
2023-10-17T15:34:04.000Z,2.7
2023-10-17T15:37:37.000Z,3.6
2023-10-17T15:41:09.000Z,3.1
2023-10-17T15:44:42.000Z,2.9
2023-10-17T15:48:15.000Z,2.7
2023-10-17T15:51:48.000Z,2.8
2023-10-17T15:55:21.000Z,3.3
2023-10-17T15:58:54.000Z,3.4
2023-10-17T16:02:26.000Z,5.6
2023-10-17T16:05:12.000Z,4.3
2023-10-17T16:08:45.000Z,4.8
2023-10-17T16:12:19.000Z,4.6
2023-10-17T16:15:51.000Z,4.9
2023-10-17T16:19:25.000Z,4.7
2023-10-17T16:22:58.000Z,3.6
2023-10-17T16:26:31.000Z,6.3
2023-10-17T16:30:04.000Z,5.9
2023-10-17T16:33:36.000Z,3.8
2023-10-17T16:37:09.000Z,4.2
2023-10-17T16:40:42.000Z,4.3
2023-10-17T16:43:27.000Z,5.8
2023-10-17T16:47:00.000Z,5.5
2023-10-17T16:50:33.000Z,4.9
2023-10-17T16:54:06.000Z,4.8
2023-10-17T16:57:39.000Z,5.6
2023-10-17T17:01:12.000Z,7.9
2023-10-17T17:04:46.000Z,7.3
2023-10-17T17:08:19.000Z,5
2023-10-17T17:11:52.000Z,5.7
2023-10-17T17:15:25.000Z,5.5
2023-10-17T17:18:57.000Z,4.5
2023-10-17T17:21:43.000Z,3.7
2023-10-17T17:25:16.000Z,5
2023-10-17T17:28:48.000Z,5.1
2023-10-17T17:32:21.000Z,5.1
2023-10-17T17:35:54.000Z,5.4
2023-10-17T17:39:26.000Z,4.4
2023-10-17T17:43:00.000Z,4.3
2023-10-17T17:46:34.000Z,4.9
2023-10-17T17:50:06.000Z,6.2
2023-10-17T17:53:40.000Z,5.9
2023-10-17T17:57:13.000Z,5.6
2023-10-17T17:59:58.000Z,5.3
2023-10-17T18:03:31.000Z,5.5
2023-10-17T18:07:04.000Z,4.6
2023-10-17T18:10:37.000Z,5.5
2023-10-17T18:14:10.000Z,4.9
2023-10-17T18:17:43.000Z,4.7
2023-10-17T18:21:16.000Z,4.3
2023-10-17T18:24:49.000Z,4.7
2023-10-17T18:28:22.000Z,4.8
2023-10-17T18:31:55.000Z,5.4
2023-10-17T18:35:28.000Z,5.1
2023-10-17T18:38:14.000Z,4.2
2023-10-17T18:41:47.000Z,4.4
2023-10-17T18:45:20.000Z,3.9
2023-10-17T18:48:52.000Z,3.7
2023-10-17T18:52:25.000Z,4.6
2023-10-17T18:55:58.000Z,5.6
2023-10-17T18:59:31.000Z,5
2023-10-17T19:03:13.000Z,4.1
2023-10-17T19:06:46.000Z,3.8
2023-10-17T19:10:19.000Z,4
2023-10-17T19:13:52.000Z,4.2
2023-10-17T19:16:37.000Z,4.2
2023-10-17T19:20:10.000Z,5.1
2023-10-17T19:23:42.000Z,4.9
2023-10-17T19:27:16.000Z,6.1
2023-10-17T19:30:49.000Z,6.9
2023-10-17T19:34:22.000Z,6.2
2023-10-17T19:37:55.000Z,6.1
2023-10-17T19:41:28.000Z,5
2023-10-17T19:45:01.000Z,4.8
2023-10-17T19:48:34.000Z,5.3
2023-10-17T19:52:06.000Z,5.6
2023-10-17T19:54:52.000Z,5.3
2023-10-17T19:58:24.000Z,4.5
2023-10-17T20:01:57.000Z,5
2023-10-17T20:05:30.000Z,4.8
2023-10-17T20:09:03.000Z,5.5
2023-10-17T20:12:36.000Z,5.7
2023-10-17T20:16:09.000Z,5.3
2023-10-17T20:19:42.000Z,5.7
2023-10-17T20:23:15.000Z,5.4
2023-10-17T20:26:47.000Z,5.2
2023-10-17T20:30:20.000Z,5.3
2023-10-17T20:33:06.000Z,4.8
2023-10-17T20:36:38.000Z,4.8
2023-10-17T20:40:11.000Z,5.2
2023-10-17T20:43:47.000Z,5.3
2023-10-17T20:47:20.000Z,5.1
2023-10-17T20:50:53.000Z,5.5
2023-10-17T20:54:26.000Z,5.3
2023-10-17T20:57:58.000Z,5.2
2023-10-17T21:01:31.000Z,5.7
2023-10-17T21:05:05.000Z,5.2
2023-10-17T21:08:38.000Z,5.7
2023-10-17T21:11:23.000Z,5.9
2023-10-17T21:14:56.000Z,5.5
2023-10-17T21:18:29.000Z,5
2023-10-17T21:22:02.000Z,5.7
2023-10-17T21:25:35.000Z,5.2
2023-10-17T21:29:07.000Z,5.6
2023-10-17T21:32:40.000Z,6.2
2023-10-17T21:36:13.000Z,5.8
2023-10-17T21:39:49.000Z,6
2023-10-17T21:43:21.000Z,5.9
2023-10-17T21:46:54.000Z,5.6
2023-10-17T21:49:39.000Z,5.8
2023-10-17T21:53:12.000Z,6.4
2023-10-17T21:56:44.000Z,6
2023-10-17T22:00:13.000Z,6.6
2023-10-17T22:03:41.000Z,6.6
2023-10-17T22:07:10.000Z,6.7
2023-10-17T22:10:43.000Z,6
2023-10-17T22:14:11.000Z,6.3
2023-10-17T22:17:39.000Z,5.8
2023-10-17T22:21:08.000Z,6.5
2023-10-17T22:24:36.000Z,6.5
2023-10-17T22:27:31.000Z,6.5
2023-10-17T22:31:00.000Z,6.7
2023-10-17T22:34:28.000Z,6.8
2023-10-17T22:37:56.000Z,8.8
2023-10-17T22:41:25.000Z,7.6
2023-10-17T22:44:52.000Z,7
2023-10-17T22:48:20.000Z,6.8
2023-10-17T22:51:48.000Z,6.3
2023-10-17T22:55:16.000Z,6.7
2023-10-17T22:58:44.000Z,6.9
2023-10-17T23:02:12.000Z,6.9
2023-10-17T23:04:56.000Z,7.1
2023-10-17T23:08:24.000Z,7
2023-10-17T23:11:52.000Z,7.9
2023-10-17T23:15:20.000Z,9.8
2023-10-17T23:18:48.000Z,8.5
2023-10-17T23:22:16.000Z,7.4
2023-10-17T23:25:44.000Z,6.9
2023-10-17T23:29:12.000Z,7
2023-10-17T23:32:40.000Z,7.1
2023-10-17T23:36:08.000Z,6.4
2023-10-17T23:39:36.000Z,6.7
2023-10-17T23:42:20.000Z,6.9
2023-10-17T23:45:48.000Z,7
2023-10-17T23:49:16.000Z,6.8
2023-10-17T23:52:44.000Z,6.6
2023-10-17T23:56:12.000Z,7.2
2023-10-17T23:59:40.000Z,6.9
